Pride — ZDFD7 — position and weather

sailwx.info

Track history (hours):
 
Tides and Currents Weather Stations Pressure Air Temp Water Temp Dewpoint Dewpoint Depression Visibility Wind Speed Wind Dir Waves Ship Positions

Pride

Last reported at 2015-Jan-24 13:07 UTC. Time now 2015-Jan-29 04:23 UTC.
Position N 50°36' E 000°17'.

Length 88 m; draft 4.9 m.

Type: Ship. MMSI: 236166000.

Date/timePositionNaut miles runAvg speedWind from/ knotsBaromVisibWave heightAir tempDewpointWater temp
2015-Jan-24 13:07N 50°36' E 000°17'5 7.5
2015-Jan-24 12:29N 50°37' E 000°24'7 7.1
2015-Jan-24 11:33N 50°39' E 000°34'8 7.7
2015-Jan-24 10:33N 50°43' E 000°44'2310.4
2015-Jan-24 08:19N 50°57' E 001°14'911.3
2015-Jan-24 07:33N 51°03' E 001°24'9 9.5
2015-Jan-24 06:33N 51°09' E 001°36'8 7.6
2015-Jan-24 05:34N 51°14' E 001°45'7 6.7
2015-Jan-24 04:33N 51°20' E 001°49'5 5.5
2015-Jan-24 03:33N 51°25' E 001°53'4 4.5
2015-Jan-24 02:33N 51°29' E 001°57'6 5.8
2015-Jan-24 01:33N 51°33' E 002°03'10 8.0
2015-Jan-24 00:18N 51°40' E 002°14'147 9.3
2015-Jan-23 08:33N 53°32' E 004°51'11 8.1
2015-Jan-23 07:08N 53°36' E 005°09'5 8.8
2015-Jan-23 06:33N 53°38' E 005°17'1010.0
2015-Jan-23 05:33N 53°41' E 005°33'1111.4
2015-Jan-23 04:33N 53°45' E 005°51'5310.3
2015-Jan-22 23:22N 53°59' E 007°19'7 8.4
2015-Jan-22 22:33N 54°00' E 007°30'8 8.4
2015-Jan-22 21:33N 54°02' E 007°44'9 8.8
2015-Jan-22 20:33N 54°01' E 007°59'9 9.0
2015-Jan-22 19:33N 54°01' E 008°14'1212.4
2015-Jan-22 18:33N 53°58' E 008°34'1212.5
2015-Jan-22 17:33N 53°50' E 008°51'1110.8
2015-Jan-22 16:33N 53°54' E 009°09'0 0.5
2015-Jan-22 15:33N 53°54' E 009°09'0 0.0
2015-Jan-22 14:33N 53°54' E 009°09'4 4.2
2015-Jan-22 13:33N 53°57' E 009°14'9 8.5
2015-Jan-22 12:33N 54°05' E 009°19'6 6.0
2015-Jan-22 11:31N 54°10' E 009°25'10 5.0
2015-Jan-22 09:31N 54°17' E 009°38'8 8.4
2015-Jan-22 08:33N 54°22' E 009°49'8 8.0
2015-Jan-22 07:34N 54°22' E 010°02'4 3.5
2015-Jan-22 06:33N 54°22' E 010°08'1 1.1
2015-Jan-22 05:33N 54°22' E 010°10'3 3.0
2015-Jan-22 04:33N 54°25' E 010°13'8 8.2
2015-Jan-22 03:34N 54°31' E 010°22'22 8.9
2015-Jan-22 01:08N 54°36' E 010°58'6 9.8
2015-Jan-22 00:33N 54°36' E 011°08'10 9.6
2015-Jan-21 23:34N 54°33' E 011°23'7 9.4
2015-Jan-21 22:50N 54°30' E 011°34'1 9.0
2015-Jan-21 22:46N 54°30' E 011°35'2 9.2
2015-Jan-21 22:33N 54°29' E 011°38'9 9.0
2015-Jan-21 21:33N 54°26' E 011°53'10 9.4
2015-Jan-21 20:32N 54°27' E 012°09'11 9.8
2015-Jan-21 19:26N 54°37' E 012°15'8 9.5
2015-Jan-21 18:33N 54°42' E 012°27'18 8.9
2015-Jan-21 16:29N 54°48' E 012°57'13 9.5
2015-Jan-21 15:06N 54°47' E 013°20'5 9.4
2015-Jan-21 14:33N 54°46' E 013°29'9 9.3
2015-Jan-21 13:34N 54°45' E 013°45'9 9.3
2015-Jan-21 12:33N 54°42' E 014°00'155 9.5
2015-Jan-20 20:12N 54°57' E 018°29'6 8.9
2015-Jan-20 19:34N 54°56' E 018°38'9 9.3
2015-Jan-20 18:34N 54°50' E 018°51'8 8.0
2015-Jan-20 17:33N 54°43' E 018°59'1010.0
2015-Jan-20 16:33N 54°34' E 018°52'7 7.2
2015-Jan-20 15:34N 54°29' E 018°44'5 5.0
2015-Jan-20 14:28N 54°24' E 018°40'0 0.1
2015-Jan-20 13:30N 54°24' E 018°40'0 0.0
2015-Jan-20 12:32N 54°24' E 018°40'0 0.0
2015-Jan-20 11:32N 54°24' E 018°40'0 0.0
2015-Jan-20 10:29N 54°24' E 018°40'0 0.0
2015-Jan-20 09:29N 54°24' E 018°40'0 0.0
2015-Jan-20 08:32N 54°24' E 018°40'0 0.0
2015-Jan-20 07:32N 54°24' E 018°40'0 0.0
2015-Jan-20 06:32N 54°24' E 018°40'0 0.0
2015-Jan-20 05:32N 54°24' E 018°40'0 0.0
2015-Jan-20 04:29N 54°24' E 018°40'0 0.0
2015-Jan-20 03:29N 54°24' E 018°40'0 0.0
2015-Jan-20 02:32N 54°24' E 018°40'0 0.0
2015-Jan-20 01:33N 54°24' E 018°40'0 0.0
2015-Jan-20 00:32N 54°24' E 018°40'0 0.0
2015-Jan-19 23:32N 54°24' E 018°40'0 0.0
2015-Jan-19 22:33N 54°24' E 018°40'0 0.0
2015-Jan-19 21:33N 54°24' E 018°40'0 0.0
2015-Jan-19 20:31N 54°24' E 018°40'0 0.0
2015-Jan-19 19:32N 54°24' E 018°40'0 0.0
2015-Jan-19 18:30N 54°24' E 018°40'0 0.0
2015-Jan-19 17:31N 54°24' E 018°40'0 0.0
2015-Jan-19 16:26N 54°24' E 018°40'0 0.0
2015-Jan-19 15:32N 54°24' E 018°40'0 0.0
2015-Jan-19 14:31N 54°24' E 018°40'0 0.0
2015-Jan-19 13:33N 54°24' E 018°40'2 1.9
2015-Jan-19 12:34N 54°25' E 018°39'1010.2
2015-Jan-19 11:34N 54°33' E 018°50'10 9.9
2015-Jan-19 10:34N 54°42' E 018°57'1010.2
2015-Jan-19 09:33N 54°52' E 019°01'1010.2
2015-Jan-19 08:34N 55°02' E 019°04'  
Track history (hours):
 
Tides and Currents Weather Stations Pressure Air Temp Water Temp Dewpoint Dewpoint Depression Visibility Wind Speed Wind Dir Waves Ship Positions

Pride

Last reported at 2015-Jan-24 13:07 UTC. Time now 2015-Jan-29 04:23 UTC.
Position N 50°36' E 000°17'.

Length 88 m; draft 4.9 m.

Type: Ship. MMSI: 236166000.

Date/timePositionNaut miles runAvg speedWind from/ knotsBaromVisibWave heightAir tempDewpointWater temp
2015-Jan-24 13:07N 50°36' E 000°17'5 7.5
2015-Jan-24 12:29N 50°37' E 000°24'7 7.1
2015-Jan-24 11:33N 50°39' E 000°34'8 7.7
2015-Jan-24 10:33N 50°43' E 000°44'2310.4
2015-Jan-24 08:19N 50°57' E 001°14'911.3
2015-Jan-24 07:33N 51°03' E 001°24'9 9.5
2015-Jan-24 06:33N 51°09' E 001°36'8 7.6
2015-Jan-24 05:34N 51°14' E 001°45'7 6.7
2015-Jan-24 04:33N 51°20' E 001°49'5 5.5
2015-Jan-24 03:33N 51°25' E 001°53'4 4.5
2015-Jan-24 02:33N 51°29' E 001°57'6 5.8
2015-Jan-24 01:33N 51°33' E 002°03'10 8.0
2015-Jan-24 00:18N 51°40' E 002°14'147 9.3
2015-Jan-23 08:33N 53°32' E 004°51'11 8.1
2015-Jan-23 07:08N 53°36' E 005°09'5 8.8
2015-Jan-23 06:33N 53°38' E 005°17'1010.0
2015-Jan-23 05:33N 53°41' E 005°33'1111.4
2015-Jan-23 04:33N 53°45' E 005°51'5310.3
2015-Jan-22 23:22N 53°59' E 007°19'7 8.4
2015-Jan-22 22:33N 54°00' E 007°30'8 8.4
2015-Jan-22 21:33N 54°02' E 007°44'9 8.8
2015-Jan-22 20:33N 54°01' E 007°59'9 9.0
2015-Jan-22 19:33N 54°01' E 008°14'1212.4
2015-Jan-22 18:33N 53°58' E 008°34'1212.5
2015-Jan-22 17:33N 53°50' E 008°51'1110.8
2015-Jan-22 16:33N 53°54' E 009°09'0 0.5
2015-Jan-22 15:33N 53°54' E 009°09'0 0.0
2015-Jan-22 14:33N 53°54' E 009°09'4 4.2
2015-Jan-22 13:33N 53°57' E 009°14'9 8.5
2015-Jan-22 12:33N 54°05' E 009°19'6 6.0
2015-Jan-22 11:31N 54°10' E 009°25'10 5.0
2015-Jan-22 09:31N 54°17' E 009°38'8 8.4
2015-Jan-22 08:33N 54°22' E 009°49'8 8.0
2015-Jan-22 07:34N 54°22' E 010°02'4 3.5
2015-Jan-22 06:33N 54°22' E 010°08'1 1.1
2015-Jan-22 05:33N 54°22' E 010°10'3 3.0
2015-Jan-22 04:33N 54°25' E 010°13'8 8.2
2015-Jan-22 03:34N 54°31' E 010°22'22 8.9
2015-Jan-22 01:08N 54°36' E 010°58'6 9.8
2015-Jan-22 00:33N 54°36' E 011°08'10 9.6
2015-Jan-21 23:34N 54°33' E 011°23'7 9.4
2015-Jan-21 22:50N 54°30' E 011°34'1 9.0
2015-Jan-21 22:46N 54°30' E 011°35'2 9.2
2015-Jan-21 22:33N 54°29' E 011°38'9 9.0
2015-Jan-21 21:33N 54°26' E 011°53'10 9.4
2015-Jan-21 20:32N 54°27' E 012°09'11 9.8
2015-Jan-21 19:26N 54°37' E 012°15'8 9.5
2015-Jan-21 18:33N 54°42' E 012°27'18 8.9
2015-Jan-21 16:29N 54°48' E 012°57'13 9.5
2015-Jan-21 15:06N 54°47' E 013°20'5 9.4
2015-Jan-21 14:33N 54°46' E 013°29'9 9.3
2015-Jan-21 13:34N 54°45' E 013°45'9 9.3
2015-Jan-21 12:33N 54°42' E 014°00'155 9.5
2015-Jan-20 20:12N 54°57' E 018°29'6 8.9
2015-Jan-20 19:34N 54°56' E 018°38'9 9.3
2015-Jan-20 18:34N 54°50' E 018°51'8 8.0
2015-Jan-20 17:33N 54°43' E 018°59'1010.0
2015-Jan-20 16:33N 54°34' E 018°52'7 7.2
2015-Jan-20 15:34N 54°29' E 018°44'5 5.0
2015-Jan-20 14:28N 54°24' E 018°40'0 0.1
2015-Jan-20 13:30N 54°24' E 018°40'0 0.0
2015-Jan-20 12:32N 54°24' E 018°40'0 0.0
2015-Jan-20 11:32N 54°24' E 018°40'0 0.0
2015-Jan-20 10:29N 54°24' E 018°40'0 0.0
2015-Jan-20 09:29N 54°24' E 018°40'0 0.0
2015-Jan-20 08:32N 54°24' E 018°40'0 0.0
2015-Jan-20 07:32N 54°24' E 018°40'0 0.0
2015-Jan-20 06:32N 54°24' E 018°40'0 0.0
2015-Jan-20 05:32N 54°24' E 018°40'0 0.0
2015-Jan-20 04:29N 54°24' E 018°40'0 0.0
2015-Jan-20 03:29N 54°24' E 018°40'0 0.0
2015-Jan-20 02:32N 54°24' E 018°40'0 0.0
2015-Jan-20 01:33N 54°24' E 018°40'0 0.0
2015-Jan-20 00:32N 54°24' E 018°40'0 0.0
2015-Jan-19 23:32N 54°24' E 018°40'0 0.0
2015-Jan-19 22:33N 54°24' E 018°40'0 0.0
2015-Jan-19 21:33N 54°24' E 018°40'0 0.0
2015-Jan-19 20:31N 54°24' E 018°40'0 0.0
2015-Jan-19 19:32N 54°24' E 018°40'0 0.0
2015-Jan-19 18:30N 54°24' E 018°40'0 0.0
2015-Jan-19 17:31N 54°24' E 018°40'0 0.0
2015-Jan-19 16:26N 54°24' E 018°40'0 0.0
2015-Jan-19 15:32N 54°24' E 018°40'0 0.0
2015-Jan-19 14:31N 54°24' E 018°40'0 0.0
2015-Jan-19 13:33N 54°24' E 018°40'2 1.9
2015-Jan-19 12:34N 54°25' E 018°39'1010.2
2015-Jan-19 11:34N 54°33' E 018°50'10 9.9
2015-Jan-19 10:34N 54°42' E 018°57'1010.2
2015-Jan-19 09:33N 54°52' E 019°01'1010.2
2015-Jan-19 08:34N 55°02' E 019°04'  

Dump ship's entire track history